Time;durP1;ratioP1;P1;durP2;ratioP2;P2;SDS_P1;SDS_P2;PMS_P1;PMS_P2;Temp;Humidity;BMP_temperature;BMP_pressure;BME280_temperature;BME280_humidity;BME280_pressure;Samples;Min_cycle;Max_cycle;Signal;HPM_P1;HPM_P2
2024/01/30 00:04:05;;;;;;;;;;;;;;;;;;;;;
2024/01/30 00:06:42;;;;;;;54.42;31.02;;;;;;;;;;4735886;30;20106;-94
2024/01/30 00:09:09;;;;;;;47.72;28.60;;;;;;;;;;4761035;29;20046;-92
2024/01/30 00:11:45;;;;;;;52.10;28.98;;;;;;;;;;4805795;29;20041;-94
2024/01/30 00:14:13;;;;;;;45.58;26.80;;;;;;;;;;4947935;28;20043;-93
2024/01/30 00:16:39;;;;;;;43.58;26.13;;;;;;;;;;4979260;28;20041;-94
2024/01/30 00:19:25;;;;;;;49.85;27.35;;;;;;;;;;4979873;28;20498;-92
2024/01/30 00:21:58;;;;;;;52.15;28.65;;;;;;;;;;4995783;28;20157;-93
2024/01/30 00:24:26;;;;;;;46.85;26.98;;;;;;;;;;4995896;28;20023;-93
2024/01/30 00:26:52;;;;;;;45.08;26.25;;;;;;;;;;4978978;28;20038;-92
2024/01/30 00:29:21;;;;;;;53.33;29.70;;;;;;;;;;4979526;28;20027;-93
2024/01/30 00:31:52;;;;;;;48.55;28.25;;;;;;;;;;4979434;28;20030;-92
2024/01/30 00:34:44;;;;;;;49.33;28.85;;;;;;;;;;4995355;28;20113;-94
2024/01/30 00:37:18;;;;;;;53.35;29.98;;;;;;;;;;4994707;28;20056;-94
2024/01/30 00:39:43;;;;;;;49.28;27.92;;;;;;;;;;4995233;28;20534;-94
2024/01/30 00:42:11;;;;;;;46.60;28.67;;;;;;;;;;4979168;28;20580;-93
2024/01/30 00:44:39;;;;;;;46.38;27.65;;;;;;;;;;4978740;28;20035;-94
2024/01/30 00:47:08;;;;;;;49.75;27.40;;;;;;;;;;4979227;28;20514;-93
2024/01/30 00:49:38;;;;;;;;;;;;;;;;;;4979852;28;20033;-94
2024/01/30 00:52:11;;;;;;;;;;;;;;;;;;4979746;28;19916;-93
2024/01/30 00:54:46;;;;;;;47.80;27.77;;;;;;;;;;4980073;28;20051;-92
2024/01/30 00:57:19;;;;;;;47.95;27.85;;;;;;;;;;4979892;28;20031;-94
2024/01/30 00:59:57;;;;;;;49.10;27.42;;;;;;;;;;4995365;28;20490;-93
2024/01/30 01:02:28;;;;;;;46.70;26.77;;;;;;;;;;4980000;28;20030;-92
2024/01/30 01:05:08;;;;;;;47.45;27.80;;;;;;;;;;4979692;28;20030;-93
2024/01/30 01:07:47;;;;;;;53.45;29.33;;;;;;;;;;4979735;28;20117;-94
2024/01/30 01:10:25;;;;;;;52.38;28.17;;;;;;;;;;4994632;28;20069;-93
2024/01/30 01:13:07;;;;;;;51.33;28.67;;;;;;;;;;4978634;28;20117;-93
2024/01/30 01:18:43;;;;;;;46.67;25.77;;;;;;;;;;5006633;28;20056;-95
2024/01/30 01:21:11;;;;;;;44.40;23.73;;;;;;;;;;4997905;28;20124;-92
2024/01/30 01:23:37;;;;;;;51.65;28.67;;;;;;;;;;4981943;28;20022;-93
2024/01/30 01:26:03;;;;;;;45.30;26.50;;;;;;;;;;4981910;28;20038;-93
2024/01/30 01:28:28;;;;;;;52.38;27.20;;;;;;;;;;4981455;28;20032;-93
2024/01/30 01:30:58;;;;;;;49.22;26.45;;;;;;;;;;4981779;28;20030;-92
2024/01/30 01:33:24;;;;;;;;;;;;;;;;;;4998525;28;20026;-93
2024/01/30 01:35:51;;;;;;;54.25;28.48;;;;;;;;;;4998017;28;19905;-95
2024/01/30 01:38:20;;;;;;;53.53;28.00;;;;;;;;;;4997632;28;20034;-92
2024/01/30 01:40:45;;;;;;;53.55;29.20;;;;;;;;;;4981900;28;20041;-92
2024/01/30 01:43:11;;;;;;;55.95;29.88;;;;;;;;;;4997598;28;20026;-93
2024/01/30 01:45:36;;;;;;;51.45;28.70;;;;;;;;;;4981244;28;20554;-92
2024/01/30 01:48:02;;;;;;;49.88;28.73;;;;;;;;;;4981244;28;20124;-93
2024/01/30 01:50:28;;;;;;;51.70;29.15;;;;;;;;;;4981493;28;20091;-93
2024/01/30 01:52:54;;;;;;;49.17;29.08;;;;;;;;;;4981070;28;20068;-94
2024/01/30 01:55:24;;;;;;;46.72;27.80;;;;;;;;;;4981891;28;20014;-94
2024/01/30 01:57:49;;;;;;;54.40;28.52;;;;;;;;;;4997231;28;20034;-95
2024/01/30 02:00:19;;;;;;;51.35;29.30;;;;;;;;;;4997473;28;20022;-93
2024/01/30 02:02:52;;;;;;;48.90;28.50;;;;;;;;;;4981969;28;20036;-93
2024/01/30 02:05:37;;;;;;;46.92;28.23;;;;;;;;;;4983694;28;20033;-92
2024/01/30 02:08:08;;;;;;;51.40;28.85;;;;;;;;;;4997437;28;20525;-93
2024/01/30 02:10:36;;;;;;;46.83;26.73;;;;;;;;;;4981251;28;20489;-93
2024/01/30 02:13:04;;;;;;;46.72;26.88;;;;;;;;;;4980859;28;20025;-94
2024/01/30 02:15:32;;;;;;;;;;;;;;;;;;4997711;28;20133;-93
2024/01/30 02:18:05;;;;;;;46.85;26.25;;;;;;;;;;4997265;28;19983;-94
2024/01/30 02:20:37;;;;;;;47.67;26.45;;;;;;;;;;4981681;28;20038;-93
2024/01/30 02:23:07;;;;;;;53.30;28.17;;;;;;;;;;4997371;28;20036;-94
2024/01/30 02:25:55;;;;;;;;;;;;;;;;;;;;;
2024/01/30 02:28:33;;;;;;;43.13;26.73;;;;;;;;;;4997365;28;20390;-93
2024/01/30 02:31:02;;;;;;;46.38;27.38;;;;;;;;;;4981194;28;20030;-94
2024/01/30 02:33:45;;;;;;;50.33;28.02;;;;;;;;;;4981143;28;20034;-94
2024/01/30 02:36:10;;;;;;;49.25;27.52;;;;;;;;;;4997354;28;20037;-94
2024/01/30 02:38:41;;;;;;;;;;;;;;;;;;4982182;28;20029;-95
2024/01/30 02:41:06;;;;;;;49.30;28.02;;;;;;;;;;4997115;28;19960;-94
2024/01/30 02:43:39;;;;;;;51.08;28.48;;;;;;;;;;4981547;28;20042;-95
2024/01/30 02:46:07;;;;;;;48.33;28.15;;;;;;;;;;4981394;28;20064;-94
2024/01/30 02:48:35;;;;;;;54.38;27.73;;;;;;;;;;4980598;28;20057;-94
2024/01/30 02:51:05;;;;;;;52.83;27.65;;;;;;;;;;4981014;28;20076;-95
2024/01/30 02:53:38;;;;;;;49.17;26.75;;;;;;;;;;4981841;28;20030;-95
2024/01/30 02:56:09;;;;;;;51.03;27.98;;;;;;;;;;4980942;28;20030;-95
2024/01/30 02:58:37;;;;;;;51.40;27.30;;;;;;;;;;4997083;28;20061;-94
2024/01/30 03:01:10;;;;;;;47.20;26.95;;;;;;;;;;4980650;28;20068;-93
2024/01/30 03:03:36;;;;;;;48.35;26.95;;;;;;;;;;4981476;28;20475;-93
2024/01/30 03:06:04;;;;;;;53.92;27.85;;;;;;;;;;4984000;28;20041;-94
2024/01/30 03:08:35;;;;;;;52.28;27.35;;;;;;;;;;5000383;28;20030;-95
2024/01/30 03:11:07;;;;;;;58.85;28.38;;;;;;;;;;5000550;28;20049;-93
2024/01/30 03:13:33;;;;;;;53.63;27.45;;;;;;;;;;4983999;28;20084;-92
2024/01/30 03:15:58;;;;;;;52.50;27.55;;;;;;;;;;4983704;28;20030;-94
2024/01/30 03:18:24;;;;;;;50.17;27.20;;;;;;;;;;4983902;28;20049;-93
2024/01/30 03:20:49;;;;;;;57.55;28.45;;;;;;;;;;5000116;28;20431;-92
2024/01/30 03:23:15;;;;;;;58.83;27.80;;;;;;;;;;4983617;28;20014;-94
2024/01/30 03:25:43;;;;;;;57.63;28.55;;;;;;;;;;5000812;28;20022;-93
2024/01/30 03:28:16;;;;;;;57.95;28.52;;;;;;;;;;4983975;28;20102;-94
2024/01/30 03:30:41;;;;;;;53.45;28.90;;;;;;;;;;4983813;28;20112;-92
2024/01/30 03:33:07;;;;;;;59.08;28.42;;;;;;;;;;4983682;28;20054;-94
2024/01/30 03:35:32;;;;;;;53.60;26.67;;;;;;;;;;4983566;28;20028;-94
2024/01/30 03:37:58;;;;;;;56.67;28.02;;;;;;;;;;4999897;28;20510;-93
2024/01/30 03:40:25;;;;;;;58.38;27.27;;;;;;;;;;4983512;28;20092;-93
2024/01/30 03:42:51;;;;;;;53.58;26.85;;;;;;;;;;4983870;28;20075;-92
2024/01/30 03:45:19;;;;;;;54.13;25.90;;;;;;;;;;4983604;28;20124;-94
2024/01/30 03:47:45;;;;;;;55.20;25.92;;;;;;;;;;5000008;28;20479;-94
2024/01/30 03:50:11;;;;;;;48.00;25.35;;;;;;;;;;4983514;28;20029;-93
2024/01/30 03:52:36;;;;;;;47.20;25.65;;;;;;;;;;4983815;28;20021;-92
2024/01/30 03:55:02;;;;;;;50.97;25.35;;;;;;;;;;4999923;28;20034;-93
2024/01/30 03:57:30;;;;;;;45.88;24.55;;;;;;;;;;4983227;28;20030;-94
2024/01/30 03:59:57;;;;;;;52.22;26.00;;;;;;;;;;4983343;28;20026;-95
2024/01/30 04:02:25;;;;;;;65.00;35.90;;;;;;;;;;4983525;28;20026;-94
2024/01/30 04:04:53;;;;;;;57.05;30.25;;;;;;;;;;4999378;28;20057;-93
2024/01/30 04:07:18;;;;;;;51.72;28.02;;;;;;;;;;4983163;28;20025;-94
2024/01/30 04:09:44;;;;;;;51.13;24.92;;;;;;;;;;4982808;28;20030;-94
2024/01/30 04:12:14;;;;;;;47.40;24.27;;;;;;;;;;4999376;28;20018;-93
2024/01/30 04:14:44;;;;;;;47.30;26.63;;;;;;;;;;4983529;28;20026;-94
2024/01/30 04:17:23;;;;;;;51.30;26.73;;;;;;;;;;4998655;28;20391;-94
2024/01/30 04:20:00;;;;;;;48.80;25.85;;;;;;;;;;4999295;28;20498;-93
2024/01/30 04:22:28;;;;;;;81.30;44.13;;;;;;;;;;4983606;28;20034;-93
2024/01/30 04:24:54;;;;;;;110.93;60.78;;;;;;;;;;4982805;28;20054;-95
2024/01/30 04:27:21;;;;;;;103.07;56.80;;;;;;;;;;4999200;28;20030;-94
2024/01/30 04:29:47;;;;;;;92.70;49.47;;;;;;;;;;4982417;28;20026;-94
2024/01/30 04:38:13;;;;;;;62.22;35.70;;;;;;;;;;5001471;28;20475;-93
2024/01/30 04:47:52;;;;;;;65.43;36.90;;;;;;;;;;5122267;22;20496;-67
2024/01/30 04:50:18;;;;;;;57.95;33.53;;;;;;;;;;5115312;28;20254;-67
2024/01/30 04:52:44;;;;;;;57.22;31.00;;;;;;;;;;5114612;28;20011;-67
2024/01/30 04:55:09;;;;;;;56.25;31.25;;;;;;;;;;5114274;28;20372;-66
2024/01/30 04:57:35;;;;;;;49.70;28.48;;;;;;;;;;5114199;28;20032;-66
2024/01/30 05:00:00;;;;;;;46.97;27.15;;;;;;;;;;5114257;28;20028;-67
2024/01/30 05:02:27;;;;;;;52.88;27.17;;;;;;;;;;5114286;28;20023;-68
2024/01/30 05:04:52;;;;;;;49.78;27.80;;;;;;;;;;5096075;28;20067;-68
2024/01/30 05:07:18;;;;;;;54.08;29.25;;;;;;;;;;5114281;28;20046;-67
2024/01/30 05:09:43;;;;;;;47.60;27.75;;;;;;;;;;5114766;28;20092;-67
2024/01/30 05:12:14;;;;;;;43.92;25.92;;;;;;;;;;5114816;28;20035;-67
2024/01/30 05:14:39;;;;;;;;;;;;;;;;;;5096976;28;20036;-67
2024/01/30 05:17:23;;;;;;;55.90;31.25;;;;;;;;;;5096387;28;19972;-67
2024/01/30 05:19:49;;;;;;;65.85;34.42;;;;;;;;;;5096688;28;20524;-68
2024/01/30 05:22:15;;;;;;;51.13;29.90;;;;;;;;;;5114836;28;20106;-61
2024/01/30 05:27:40;;;;;;;52.25;29.02;;;;;;;;;;5074306;22;20505;-63
2024/01/30 05:30:13;;;;;;;63.42;31.35;;;;;;;;;;5083779;22;20088;-62
2024/01/30 05:32:45;;;;;;;59.20;30.85;;;;;;;;;;5099744;22;20414;-67
2024/01/30 05:35:11;;;;;;;48.83;28.30;;;;;;;;;;5071782;28;20052;-68
2024/01/30 05:37:36;;;;;;;47.97;27.50;;;;;;;;;;5073864;28;20033;-67
2024/01/30 05:40:01;;;;;;;62.63;30.92;;;;;;;;;;5074289;28;20029;-67
2024/01/30 05:42:28;;;;;;;49.60;26.40;;;;;;;;;;5073507;28;20486;-67
2024/01/30 05:44:53;;;;;;;47.70;26.02;;;;;;;;;;5073799;28;20012;-67
2024/01/30 05:47:19;;;;;;;53.55;26.80;;;;;;;;;;5073980;28;20570;-67
2024/01/30 05:49:44;;;;;;;46.15;25.52;;;;;;;;;;5073720;28;20032;-67
2024/01/30 05:52:09;;;;;;;51.10;26.02;;;;;;;;;;5073598;28;20035;-66
2024/01/30 05:54:35;;;;;;;49.33;25.75;;;;;;;;;;5074303;28;20028;-68
2024/01/30 05:57:00;;;;;;;47.33;24.90;;;;;;;;;;5073989;28;20064;-67
2024/01/30 05:59:25;;;;;;;52.15;26.30;;;;;;;;;;5065177;28;20029;-67
2024/01/30 06:01:51;;;;;;;45.20;24.25;;;;;;;;;;5071650;28;20094;-67
2024/01/30 06:04:16;;;;;;;43.25;24.13;;;;;;;;;;5071170;28;20040;-67
2024/01/30 06:06:42;;;;;;;43.97;25.80;;;;;;;;;;5071286;28;20028;-67
2024/01/30 06:09:12;;;;;;;47.42;26.55;;;;;;;;;;5071049;28;20059;-66
2024/01/30 06:11:38;;;;;;;;;;;;;;;;;;5071708;28;20040;-67
2024/01/30 06:14:03;;;;;;;48.55;24.20;;;;;;;;;;5053052;28;19920;-67
2024/01/30 06:16:29;;;;;;;51.70;26.75;;;;;;;;;;5052815;28;20072;-67
2024/01/30 06:18:57;;;;;;;53.78;28.35;;;;;;;;;;5069985;28;20424;-66
2024/01/30 06:21:24;;;;;;;41.38;23.00;;;;;;;;;;5070581;28;20486;-67
2024/01/30 06:23:49;;;;;;;55.10;27.85;;;;;;;;;;5052806;28;20035;-66
2024/01/30 06:26:14;;;;;;;56.00;27.20;;;;;;;;;;5052576;28;20036;-66
2024/01/30 06:28:40;;;;;;;54.65;27.45;;;;;;;;;;5072796;28;20032;-66
2024/01/30 06:31:06;;;;;;;42.15;25.13;;;;;;;;;;5072357;28;20029;-66
2024/01/30 06:33:32;;;;;;;42.90;23.23;;;;;;;;;;5072118;28;20048;-66
2024/01/30 06:35:57;;;;;;;39.33;22.08;;;;;;;;;;5073685;28;20082;-66
2024/01/30 06:38:23;;;;;;;35.80;19.35;;;;;;;;;;5074243;28;20025;-67
2024/01/30 06:40:48;;;;;;;36.30;20.00;;;;;;;;;;5077083;28;20171;-66
2024/01/30 06:43:13;;;;;;;34.65;18.65;;;;;;;;;;5077332;28;20428;-65
2024/01/30 06:45:39;;;;;;;37.05;19.67;;;;;;;;;;5077189;28;20374;-66
2024/01/30 06:48:06;;;;;;;34.20;18.73;;;;;;;;;;5075937;28;20037;-65
2024/01/30 06:50:31;;;;;;;33.78;18.73;;;;;;;;;;5076023;28;20025;-66
2024/01/30 06:52:56;;;;;;;38.25;19.92;;;;;;;;;;5076256;28;20458;-65
2024/01/30 06:55:22;;;;;;;38.20;24.38;;;;;;;;;;5075377;28;20398;-65
2024/01/30 06:57:47;;;;;;;36.60;23.38;;;;;;;;;;5076091;28;20068;-65
2024/01/30 07:00:14;;;;;;;38.80;23.05;;;;;;;;;;5075987;28;20025;-65
2024/01/30 07:02:39;;;;;;;38.75;22.40;;;;;;;;;;5075853;28;20413;-66
2024/01/30 07:05:04;;;;;;;37.88;21.63;;;;;;;;;;5075126;28;20031;-66
2024/01/30 07:07:30;;;;;;;38.13;22.45;;;;;;;;;;5075251;28;20081;-66
2024/01/30 07:09:58;;;;;;;38.28;22.45;;;;;;;;;;5075085;28;20016;-65
2024/01/30 07:12:25;;;;;;;32.90;19.67;;;;;;;;;;5074942;28;20040;-66
2024/01/30 07:14:51;;;;;;;35.17;20.92;;;;;;;;;;5074659;28;20105;-67
2024/01/30 07:17:18;;;;;;;38.40;22.63;;;;;;;;;;5076518;28;20028;-66
2024/01/30 07:19:44;;;;;;;37.10;22.27;;;;;;;;;;5076572;28;20031;-66
2024/01/30 07:22:09;;;;;;;40.58;22.83;;;;;;;;;;5076300;28;20385;-66
2024/01/30 07:24:34;;;;;;;38.58;24.33;;;;;;;;;;5076232;28;20021;-66
2024/01/30 07:27:00;;;;;;;39.40;23.77;;;;;;;;;;5058685;28;20035;-66
2024/01/30 07:29:28;;;;;;;34.90;22.00;;;;;;;;;;5058224;28;20458;-66
2024/01/30 07:31:54;;;;;;;43.20;25.30;;;;;;;;;;5058176;28;20438;-66
2024/01/30 07:34:20;;;;;;;43.05;24.63;;;;;;;;;;5075900;28;20117;-66
2024/01/30 07:36:46;;;;;;;40.58;23.58;;;;;;;;;;5075915;28;20478;-66
2024/01/30 07:39:12;;;;;;;36.50;23.30;;;;;;;;;;5074705;28;20029;-66
2024/01/30 07:41:37;;;;;;;37.28;22.30;;;;;;;;;;5075920;28;20032;-66
2024/01/30 07:44:03;;;;;;;37.40;22.42;;;;;;;;;;5075854;28;20036;-66
2024/01/30 07:46:28;;;;;;;38.20;22.73;;;;;;;;;;5076142;28;20028;-67
2024/01/30 07:48:53;;;;;;;38.75;22.40;;;;;;;;;;5075721;28;20391;-66
2024/01/30 07:51:19;;;;;;;38.50;22.98;;;;;;;;;;5076031;28;20029;-66
2024/01/30 07:53:45;;;;;;;40.25;23.65;;;;;;;;;;5075836;28;20035;-67
2024/01/30 07:56:10;;;;;;;45.72;26.30;;;;;;;;;;5075844;28;20020;-67
2024/01/30 07:58:36;;;;;;;55.65;30.25;;;;;;;;;;5075903;28;20469;-67
2024/01/30 08:01:02;;;;;;;64.10;35.00;;;;;;;;;;5057919;28;20090;-68
2024/01/30 08:03:28;;;;;;;70.88;37.85;;;;;;;;;;5075529;28;20090;-67
2024/01/30 08:05:53;;;;;;;68.40;38.72;;;;;;;;;;5075520;28;20016;-67
2024/01/30 08:08:19;;;;;;;60.92;35.30;;;;;;;;;;5075363;28;20028;-67
2024/01/30 08:10:44;;;;;;;51.30;30.77;;;;;;;;;;5075391;28;20063;-66
2024/01/30 08:13:09;;;;;;;43.95;25.08;;;;;;;;;;5075652;28;20052;-67
2024/01/30 08:15:35;;;;;;;39.72;22.15;;;;;;;;;;5057268;28;20028;-67
2024/01/30 08:18:01;;;;;;;36.30;19.80;;;;;;;;;;5075209;28;20029;-66
2024/01/30 08:20:27;;;;;;;35.70;18.55;;;;;;;;;;5057279;28;20077;-67
2024/01/30 08:22:52;;;;;;;37.17;18.95;;;;;;;;;;5057576;28;20111;-66
2024/01/30 08:25:18;;;;;;;36.00;19.30;;;;;;;;;;5057075;28;20028;-67
2024/01/30 08:27:43;;;;;;;38.38;19.23;;;;;;;;;;5075029;28;20036;-65
2024/01/30 08:30:09;;;;;;;36.42;19.27;;;;;;;;;;5075008;28;20032;-65
2024/01/30 08:32:34;;;;;;;33.45;19.42;;;;;;;;;;5075161;28;20105;-66
2024/01/30 08:35:03;;;;;;;31.55;18.92;;;;;;;;;;5074828;28;20064;-67
2024/01/30 08:37:29;;;;;;;47.13;24.17;;;;;;;;;;5074877;28;20035;-65
2024/01/30 08:39:54;;;;;;;41.58;23.77;;;;;;;;;;5057263;28;20032;-66
2024/01/30 08:42:22;;;;;;;34.08;19.40;;;;;;;;;;5074742;28;20107;-66
2024/01/30 08:44:48;;;;;;;32.25;19.80;;;;;;;;;;5075072;28;20023;-66
2024/01/30 08:47:16;;;;;;;30.85;17.48;;;;;;;;;;5074660;28;20033;-66
2024/01/30 08:49:43;;;;;;;31.95;17.65;;;;;;;;;;5074692;28;20030;-66
2024/01/30 08:52:08;;;;;;;30.58;17.60;;;;;;;;;;5073252;28;20371;-65
2024/01/30 08:54:35;;;;;;;37.15;20.58;;;;;;;;;;5057410;28;20093;-66
2024/01/30 08:57:00;;;;;;;37.78;20.02;;;;;;;;;;5074348;28;20036;-66
2024/01/30 08:59:25;;;;;;;34.65;20.42;;;;;;;;;;5074669;28;20020;-66
2024/01/30 09:01:54;;;;;;;35.53;20.63;;;;;;;;;;5073639;28;20039;-66
2024/01/30 09:04:20;;;;;;;36.72;20.75;;;;;;;;;;5074816;28;20060;-67
2024/01/30 09:06:46;;;;;;;37.25;20.02;;;;;;;;;;5074823;28;20094;-66
2024/01/30 09:09:11;;;;;;;41.22;21.15;;;;;;;;;;5074365;28;20039;-66
2024/01/30 09:11:37;;;;;;;56.10;26.23;;;;;;;;;;5074723;28;20044;-66
2024/01/30 09:14:02;;;;;;;59.28;25.55;;;;;;;;;;5074111;28;20070;-66
2024/01/30 09:16:28;;;;;;;45.30;23.38;;;;;;;;;;5056474;28;20043;-66
2024/01/30 09:18:54;;;;;;;46.28;20.58;;;;;;;;;;5074076;28;20074;-66
2024/01/30 09:21:19;;;;;;;36.05;17.85;;;;;;;;;;5056072;28;20032;-65
2024/01/30 09:23:44;;;;;;;34.80;17.60;;;;;;;;;;5074276;28;20053;-65
2024/01/30 09:26:10;;;;;;;37.17;17.02;;;;;;;;;;5074010;28;20038;-66
2024/01/30 09:28:35;;;;;;;36.22;18.98;;;;;;;;;;5073861;28;20036;-66
2024/01/30 09:31:01;;;;;;;40.97;22.40;;;;;;;;;;5073909;28;20027;-65
2024/01/30 09:33:26;;;;;;;46.85;23.90;;;;;;;;;;5073724;28;20045;-66
2024/01/30 09:35:51;;;;;;;28.25;16.00;;;;;;;;;;5073872;28;20034;-66
2024/01/30 09:38:17;;;;;;;34.50;18.20;;;;;;;;;;5073742;28;20036;-66
2024/01/30 09:40:42;;;;;;;39.67;20.27;;;;;;;;;;5073772;28;20021;-66
2024/01/30 09:43:09;;;;;;;23.40;14.02;;;;;;;;;;5074361;28;20107;-66
2024/01/30 09:45:35;;;;;;;20.10;12.90;;;;;;;;;;5055684;28;20028;-66
2024/01/30 09:48:00;;;;;;;20.02;11.05;;;;;;;;;;5055798;28;20032;-65
2024/01/30 09:50:26;;;;;;;26.33;13.75;;;;;;;;;;5073703;28;20112;-65
2024/01/30 09:52:52;;;;;;;22.90;13.93;;;;;;;;;;5073899;28;20037;-66
2024/01/30 09:55:18;;;;;;;24.98;13.27;;;;;;;;;;5055800;28;20097;-66
2024/01/30 09:57:43;;;;;;;37.10;18.10;;;;;;;;;;5073550;28;20036;-66
2024/01/30 10:00:09;;;;;;;24.88;13.35;;;;;;;;;;5074098;28;20017;-65
2024/01/30 10:02:40;;;;;;;19.38;11.93;;;;;;;;;;5073560;28;20035;-65
2024/01/30 10:05:06;;;;;;;20.52;11.45;;;;;;;;;;5055741;28;20021;-66
2024/01/30 10:07:31;;;;;;;16.40;10.20;;;;;;;;;;5073794;28;20460;-66
2024/01/30 10:09:56;;;;;;;18.52;10.82;;;;;;;;;;5073473;28;20383;-66
2024/01/30 10:12:22;;;;;;;15.18;9.82;;;;;;;;;;5073875;28;20119;-66
2024/01/30 10:14:47;;;;;;;17.85;10.00;;;;;;;;;;5077594;28;20029;-66
2024/01/30 10:17:13;;;;;;;18.42;11.07;;;;;;;;;;5077394;28;20039;-66
2024/01/30 10:19:39;;;;;;;17.20;10.35;;;;;;;;;;5077759;28;20371;-66
2024/01/30 10:22:04;;;;;;;18.33;10.70;;;;;;;;;;5077496;28;20423;-65
2024/01/30 10:24:30;;;;;;;16.27;9.50;;;;;;;;;;5077391;28;20074;-65
2024/01/30 10:26:55;;;;;;;14.30;9.70;;;;;;;;;;5059559;28;20163;-66
2024/01/30 10:29:21;;;;;;;13.15;9.20;;;;;;;;;;5059309;28;20111;-66
2024/01/30 10:31:57;;;;;;;16.77;10.07;;;;;;;;;;5077525;28;20107;-66
2024/01/30 10:34:22;;;;;;;13.70;7.80;;;;;;;;;;5077006;28;20055;-65
2024/01/30 10:36:50;;;;;;;13.52;9.18;;;;;;;;;;5059082;28;20029;-66
2024/01/30 10:39:17;;;;;;;14.65;9.90;;;;;;;;;;5077390;28;20377;-66
2024/01/30 10:41:48;;;;;;;15.05;10.30;;;;;;;;;;5077090;28;20063;-65
2024/01/30 10:44:16;;;;;;;22.55;11.88;;;;;;;;;;5077198;28;20078;-66
2024/01/30 10:46:43;;;;;;;15.50;9.95;;;;;;;;;;5077267;28;20040;-66
2024/01/30 10:49:10;;;;;;;13.90;9.68;;;;;;;;;;5076889;28;20508;-65
2024/01/30 10:51:36;;;;;;;13.30;8.05;;;;;;;;;;5077102;28;20094;-66
2024/01/30 10:54:03;;;;;;;14.68;9.52;;;;;;;;;;5076762;28;20040;-65
2024/01/30 10:56:29;;;;;;;14.45;9.45;;;;;;;;;;5076939;28;20068;-66
2024/01/30 10:58:57;;;;;;;18.65;10.52;;;;;;;;;;5076652;28;20020;-66
2024/01/30 11:01:23;;;;;;;14.48;9.20;;;;;;;;;;5075399;28;20401;-65
2024/01/30 11:03:50;;;;;;;10.90;7.35;;;;;;;;;;5076643;28;20032;-65
2024/01/30 11:06:23;;;;;;;13.55;8.00;;;;;;;;;;5076527;28;20024;-65
2024/01/30 11:09:07;;;;;;;13.07;8.13;;;;;;;;;;5076708;28;20497;-66
2024/01/30 11:11:47;;;;;;;13.60;8.40;;;;;;;;;;5076582;28;20028;-66
2024/01/30 11:14:13;;;;;;;12.07;7.93;;;;;;;;;;5076482;28;20035;-66
2024/01/30 11:16:39;;;;;;;14.13;7.97;;;;;;;;;;5075034;28;20634;-66
2024/01/30 11:19:10;;;;;;;11.07;7.55;;;;;;;;;;5058398;28;20035;-66
2024/01/30 11:21:41;;;;;;;12.20;6.95;;;;;;;;;;5076328;28;20032;-66
2024/01/30 11:24:07;;;;;;;10.70;7.35;;;;;;;;;;5075818;28;20035;-66
2024/01/30 11:26:33;;;;;;;15.43;8.70;;;;;;;;;;5076536;28;20464;-65
2024/01/30 11:28:58;;;;;;;12.75;7.97;;;;;;;;;;5058211;28;20042;-66
2024/01/30 11:31:23;;;;;;;11.70;8.10;;;;;;;;;;5076715;28;20024;-66
2024/01/30 11:33:52;;;;;;;11.68;8.00;;;;;;;;;;5057874;28;20162;-65
2024/01/30 11:36:20;;;;;;;12.13;8.27;;;;;;;;;;5075953;28;20034;-67
2024/01/30 11:38:46;;;;;;;11.95;7.93;;;;;;;;;;5076280;28;20024;-68
2024/01/30 11:41:13;;;;;;;13.68;7.45;;;;;;;;;;5076254;28;20029;-67
2024/01/30 11:43:38;;;;;;;10.60;7.45;;;;;;;;;;5057996;28;20025;-67
2024/01/30 11:46:05;;;;;;;13.38;8.98;;;;;;;;;;5075851;28;20554;-66
2024/01/30 11:48:30;;;;;;;12.55;8.20;;;;;;;;;;5076155;28;20024;-67
2024/01/30 11:50:56;;;;;;;13.98;8.45;;;;;;;;;;5075723;28;20028;-68
2024/01/30 11:53:22;;;;;;;12.82;7.53;;;;;;;;;;5075688;28;20028;-67
2024/01/30 11:55:50;;;;;;;14.90;8.13;;;;;;;;;;5076166;28;20013;-66
2024/01/30 11:58:17;;;;;;;12.05;7.30;;;;;;;;;;5057684;28;20036;-67
2024/01/30 12:00:43;;;;;;;13.40;8.00;;;;;;;;;;5057607;28;20059;-66
2024/01/30 12:03:11;;;;;;;9.85;6.53;;;;;;;;;;5075526;28;20028;-67
2024/01/30 12:05:38;;;;;;;10.95;7.13;;;;;;;;;;5075399;28;20028;-67
2024/01/30 12:08:04;;;;;;;13.65;7.78;;;;;;;;;;5074786;28;20108;-67
2024/01/30 12:10:29;;;;;;;10.60;6.25;;;;;;;;;;5075348;28;20445;-66
2024/01/30 12:12:55;;;;;;;14.05;8.60;;;;;;;;;;5075593;28;20092;-67
2024/01/30 12:15:21;;;;;;;12.35;7.70;;;;;;;;;;5075578;28;20041;-67
2024/01/30 12:17:46;;;;;;;10.95;7.45;;;;;;;;;;5075191;28;20026;-67
2024/01/30 12:20:18;;;;;;;10.57;7.45;;;;;;;;;;5075422;28;20112;-66
2024/01/30 12:22:44;;;;;;;13.07;7.82;;;;;;;;;;5075403;28;20024;-66
2024/01/30 12:25:10;;;;;;;12.18;6.65;;;;;;;;;;5075397;28;20021;-67
2024/01/30 12:27:39;;;;;;;13.45;7.88;;;;;;;;;;5074998;28;20135;-66
2024/01/30 12:30:08;;;;;;;12.13;7.78;;;;;;;;;;5074996;28;20059;-66
2024/01/30 12:32:37;;;;;;;11.30;7.38;;;;;;;;;;5075134;28;20028;-66
2024/01/30 12:35:03;;;;;;;10.60;7.35;;;;;;;;;;5074704;28;20052;-66
2024/01/30 12:37:29;;;;;;;11.68;7.43;;;;;;;;;;5073799;28;20039;-66
2024/01/30 12:39:55;;;;;;;9.13;5.85;;;;;;;;;;5074782;28;20471;-67
2024/01/30 12:42:23;;;;;;;11.95;7.38;;;;;;;;;;5074719;28;20029;-66
2024/01/30 12:44:49;;;;;;;9.35;7.10;;;;;;;;;;5073380;28;20383;-67
2024/01/30 12:47:16;;;;;;;11.40;7.30;;;;;;;;;;5074643;28;20040;-66
2024/01/30 12:49:42;;;;;;;9.25;6.38;;;;;;;;;;5074553;28;20033;-67
2024/01/30 12:52:08;;;;;;;10.32;7.13;;;;;;;;;;5074505;28;20158;-67
2024/01/30 12:54:33;;;;;;;10.35;6.75;;;;;;;;;;5074714;28;20119;-66
2024/01/30 12:56:58;;;;;;;11.45;6.93;;;;;;;;;;5074301;28;20028;-66
2024/01/30 12:59:24;;;;;;;9.95;7.10;;;;;;;;;;5056399;28;20478;-67
2024/01/30 13:01:49;;;;;;;10.20;6.95;;;;;;;;;;5074353;28;20024;-66
2024/01/30 13:04:15;;;;;;;11.75;7.47;;;;;;;;;;5074252;28;20025;-66
2024/01/30 13:06:40;;;;;;;12.93;7.47;;;;;;;;;;5056989;28;20029;-66
2024/01/30 13:09:06;;;;;;;13.63;8.27;;;;;;;;;;5074321;28;20032;-67
2024/01/30 13:11:31;;;;;;;10.48;6.63;;;;;;;;;;5074730;28;20068;-66
2024/01/30 13:13:57;;;;;;;10.98;7.53;;;;;;;;;;5074089;28;20032;-67
2024/01/30 13:16:23;;;;;;;11.95;7.22;;;;;;;;;;5074244;28;20025;-66
2024/01/30 13:18:48;;;;;;;11.20;6.97;;;;;;;;;;5074344;28;20111;-66
2024/01/30 13:21:14;;;;;;;12.65;8.02;;;;;;;;;;5074112;28;20052;-65
2024/01/30 13:26:23;;;;;;;13.30;8.10;;;;;;;;;;5086911;22;20048;-65
2024/01/30 13:28:48;;;;;;;10.95;7.70;;;;;;;;;;5101483;22;20151;-56
2024/01/30 13:31:16;;;;;;;14.77;8.30;;;;;;;;;;5094242;28;20103;-57
2024/01/30 13:33:42;;;;;;;15.77;9.85;;;;;;;;;;5094268;28;20031;-56
2024/01/30 13:36:08;;;;;;;14.52;8.32;;;;;;;;;;5094123;28;20153;-56
2024/01/30 13:38:33;;;;;;;14.50;7.80;;;;;;;;;;5076161;28;20036;-57
2024/01/30 13:40:59;;;;;;;11.23;6.82;;;;;;;;;;5094118;28;20027;-57
2024/01/30 13:43:25;;;;;;;11.00;7.57;;;;;;;;;;5094117;28;20027;-56
2024/01/30 13:45:51;;;;;;;12.60;6.85;;;;;;;;;;5075691;28;20031;-57
2024/01/30 13:48:16;;;;;;;8.75;6.70;;;;;;;;;;5093434;28;20390;-56
2024/01/30 13:50:43;;;;;;;11.25;6.88;;;;;;;;;;5075649;28;20020;-57
2024/01/30 13:53:09;;;;;;;17.10;9.13;;;;;;;;;;5094003;28;20111;-56
2024/01/30 13:55:34;;;;;;;12.55;8.52;;;;;;;;;;5093949;28;20070;-56
2024/01/30 13:58:03;;;;;;;14.98;8.88;;;;;;;;;;5093481;28;20048;-56
2024/01/30 14:00:29;;;;;;;13.43;7.93;;;;;;;;;;5093850;28;20035;-56
2024/01/30 14:02:55;;;;;;;14.52;8.57;;;;;;;;;;5093869;28;20028;-56
2024/01/30 14:05:21;;;;;;;13.23;8.60;;;;;;;;;;5093626;28;20032;-57
2024/01/30 14:07:46;;;;;;;14.13;8.48;;;;;;;;;;5093573;28;20517;-55
2024/01/30 14:10:12;;;;;;;18.45;11.13;;;;;;;;;;5093621;28;20055;-56
2024/01/30 14:12:37;;;;;;;20.27;11.43;;;;;;;;;;5093164;28;20059;-55
2024/01/30 14:15:02;;;;;;;12.93;8.02;;;;;;;;;;5094035;28;20038;-56
2024/01/30 14:17:28;;;;;;;14.80;8.70;;;;;;;;;;5093664;28;20075;-56
2024/01/30 14:19:53;;;;;;;15.55;8.13;;;;;;;;;;5093491;28;20042;-56
2024/01/30 14:22:18;;;;;;;17.40;10.77;;;;;;;;;;5093413;28;20024;-56
2024/01/30 14:24:44;;;;;;;20.70;11.45;;;;;;;;;;5093583;28;20512;-56
2024/01/30 14:27:09;;;;;;;22.58;12.23;;;;;;;;;;5093784;28;20024;-55
2024/01/30 14:29:35;;;;;;;28.48;15.18;;;;;;;;;;5093152;28;20048;-56
2024/01/30 14:32:00;;;;;;;38.55;19.35;;;;;;;;;;5093459;28;20473;-55
2024/01/30 14:34:27;;;;;;;38.25;19.17;;;;;;;;;;5093449;28;20351;-55
2024/01/30 14:36:53;;;;;;;20.80;12.45;;;;;;;;;;5075384;28;20442;-55
2024/01/30 14:39:18;;;;;;;23.30;13.43;;;;;;;;;;5093152;28;20082;-55
2024/01/30 14:41:44;;;;;;;20.10;12.00;;;;;;;;;;5075673;28;20033;-61
2024/01/30 14:44:09;;;;;;;16.90;10.70;;;;;;;;;;5093503;28;20082;-61
2024/01/30 14:46:35;;;;;;;12.52;8.68;;;;;;;;;;5093689;28;20052;-54
2024/01/30 14:49:05;;;;;;;14.85;9.35;;;;;;;;;;5093212;28;20032;-55
2024/01/30 14:51:30;;;;;;;10.30;7.43;;;;;;;;;;5093749;28;20073;-55